createdAt,value
2019-03-15T00:00:40.719Z,6.90
2019-03-15T00:03:09.633Z,6.90
2019-03-15T00:05:38.794Z,7.00
2019-03-15T00:08:07.643Z,6.90
2019-03-15T00:10:36.810Z,6.80
2019-03-15T00:13:06.111Z,6.90
2019-03-15T00:15:34.941Z,6.90
2019-03-15T00:18:04.200Z,6.90
2019-03-15T00:20:33.033Z,6.90
2019-03-15T00:23:02.181Z,6.90
2019-03-15T00:25:31.382Z,6.80
2019-03-15T00:28:00.209Z,6.80
2019-03-15T00:30:29.059Z,6.80
2019-03-15T00:32:58.575Z,6.80
2019-03-15T00:35:27.622Z,6.80
2019-03-15T00:37:56.645Z,6.80
2019-03-15T00:40:25.666Z,6.80
2019-03-15T00:42:54.931Z,6.80
2019-03-15T00:45:23.761Z,6.80
2019-03-15T00:47:52.593Z,6.90
2019-03-15T00:50:21.418Z,6.90
2019-03-15T00:52:50.339Z,7.00
2019-03-15T00:55:19.809Z,7.00
2019-03-15T00:57:48.830Z,7.10
2019-03-15T01:00:18.210Z,7.20
2019-03-15T01:02:47.411Z,7.10
2019-03-15T01:05:17.253Z,7.10
2019-03-15T01:07:46.428Z,7.00
2019-03-15T01:10:15.241Z,7.00
2019-03-15T01:12:44.097Z,7.00
2019-03-15T01:15:13.322Z,7.10
2019-03-15T01:17:42.306Z,7.00
2019-03-15T01:20:11.290Z,7.10
2019-03-15T01:22:40.202Z,7.10
2019-03-15T01:25:09.472Z,7.10
2019-03-15T01:27:38.422Z,7.10
2019-03-15T01:30:07.821Z,7.10
2019-03-15T01:32:36.653Z,7.10
2019-03-15T01:35:06.274Z,7.00
2019-03-15T01:37:35.110Z,7.00
2019-03-15T01:40:04.587Z,6.90
2019-03-15T01:42:33.404Z,6.90
2019-03-15T01:45:02.371Z,6.80
2019-03-15T01:47:31.206Z,7.00
2019-03-15T01:50:00.029Z,6.90
2019-03-15T01:52:28.849Z,7.00
2019-03-15T01:54:57.661Z,6.90
2019-03-15T01:57:27.115Z,7.00
2019-03-15T01:59:55.929Z,7.00
2019-03-15T02:02:24.761Z,7.00
2019-03-15T02:04:53.894Z,6.90
2019-03-15T02:07:22.723Z,6.90
2019-03-15T02:09:52.186Z,6.90
2019-03-15T02:12:21.878Z,6.80
2019-03-15T02:14:50.898Z,6.80
2019-03-15T02:17:19.793Z,6.90
2019-03-15T02:19:48.978Z,6.90
2019-03-15T02:22:18.174Z,6.90
2019-03-15T02:24:47.376Z,6.90
2019-03-15T02:27:16.569Z,7.00
2019-03-15T02:29:45.476Z,7.10
2019-03-15T02:32:14.293Z,7.10
2019-03-15T02:34:43.541Z,7.10
2019-03-15T02:37:12.401Z,7.00
2019-03-15T02:39:41.234Z,7.10
2019-03-15T02:42:10.057Z,7.20
2019-03-15T02:44:39.341Z,7.30
2019-03-15T02:47:08.850Z,7.30
2019-03-15T02:49:37.698Z,7.40
2019-03-15T02:52:06.939Z,7.30
2019-03-15T02:54:35.858Z,7.30
2019-03-15T02:57:04.687Z,7.30
2019-03-15T02:59:33.795Z,7.30
2019-03-15T03:02:02.934Z,7.30
2019-03-15T03:04:31.854Z,7.30
2019-03-15T03:07:01.199Z,7.40
2019-03-15T03:09:30.121Z,7.40
2019-03-15T03:11:59.275Z,7.40
2019-03-15T03:14:28.139Z,7.40
2019-03-15T03:16:57.035Z,7.60
2019-03-15T03:19:25.879Z,7.60
2019-03-15T03:21:55.075Z,7.50
2019-03-15T03:24:24.634Z,7.60
2019-03-15T03:26:53.792Z,7.70
2019-03-15T03:29:22.627Z,7.60
2019-03-15T03:31:51.463Z,7.60
2019-03-15T03:34:20.638Z,7.70
2019-03-15T03:36:49.537Z,7.70
2019-03-15T03:39:18.455Z,7.70
2019-03-15T03:41:47.720Z,7.80
2019-03-15T03:44:16.910Z,7.90
2019-03-15T03:46:46.209Z,8.00
2019-03-15T03:49:15.349Z,8.10
2019-03-15T03:51:44.511Z,8.10
2019-03-15T03:54:13.953Z,8.00
2019-03-15T03:56:43.517Z,8.00
2019-03-15T03:59:12.675Z,8.10
2019-03-15T04:01:41.662Z,8.20
2019-03-15T04:04:10.594Z,8.20
2019-03-15T04:06:39.585Z,8.20
2019-03-15T04:09:09.513Z,8.10
2019-03-15T04:11:38.585Z,8.20
2019-03-15T04:14:07.463Z,8.10
2019-03-15T04:16:36.294Z,8.10
2019-03-15T04:19:05.386Z,8.20
2019-03-15T04:21:34.290Z,8.20
2019-03-15T04:24:03.207Z,8.20
2019-03-15T04:26:32.035Z,8.30
2019-03-15T04:29:01.459Z,8.30
2019-03-15T04:31:30.297Z,8.30
2019-03-15T04:33:59.442Z,8.40
2019-03-15T04:36:28.678Z,8.40
2019-03-15T04:38:57.513Z,8.40
2019-03-15T04:41:26.434Z,8.40
2019-03-15T04:43:55.630Z,8.30
2019-03-15T04:46:24.822Z,8.40
2019-03-15T04:48:54.017Z,8.50
2019-03-15T04:51:23.318Z,8.50
2019-03-15T04:53:52.257Z,8.40
2019-03-15T04:56:21.111Z,8.40
2019-03-15T04:58:50.201Z,8.50
2019-03-15T05:01:19.499Z,8.50
2019-03-15T05:03:48.581Z,8.40
2019-03-15T05:06:17.520Z,8.30
2019-03-15T05:08:46.465Z,8.30
2019-03-15T05:11:15.309Z,8.40
2019-03-15T05:13:44.217Z,8.40
2019-03-15T05:16:13.075Z,8.40
2019-03-15T05:18:42.255Z,8.40
2019-03-15T05:21:11.263Z,8.40
2019-03-15T05:23:40.086Z,8.30
2019-03-15T05:26:09.342Z,8.40
2019-03-15T05:28:38.266Z,8.30
2019-03-15T05:31:07.197Z,8.40
2019-03-15T05:33:36.030Z,8.40
2019-03-15T05:36:04.968Z,8.50
2019-03-15T05:38:35.121Z,8.50
2019-03-15T05:41:04.931Z,8.50
2019-03-15T05:43:33.845Z,8.40
2019-03-15T05:46:02.761Z,8.40
2019-03-15T05:48:31.669Z,8.50
2019-03-15T05:51:00.606Z,8.50
2019-03-15T05:53:29.438Z,8.50
2019-03-15T05:55:58.586Z,8.40
2019-03-15T05:58:27.415Z,8.40
2019-03-15T06:00:56.261Z,8.40
2019-03-15T06:03:25.358Z,8.40
2019-03-15T06:05:54.209Z,8.40
2019-03-15T06:08:27.331Z,8.40
2019-03-15T06:10:55.022Z,8.40
2019-03-15T06:13:24.037Z,8.40
2019-03-15T06:15:52.878Z,8.30
2019-03-15T06:18:21.730Z,8.20
2019-03-15T06:20:50.977Z,8.30
2019-03-15T06:23:19.822Z,8.30
2019-03-15T06:25:49.105Z,8.20
2019-03-15T06:28:18.579Z,8.30
2019-03-15T06:30:47.770Z,8.20
2019-03-15T06:33:16.870Z,8.20
2019-03-15T06:35:46.061Z,8.30
2019-03-15T06:38:15.158Z,8.30
2019-03-15T06:40:44.014Z,8.30
2019-03-15T06:43:13.345Z,8.20
2019-03-15T06:45:42.862Z,8.20
2019-03-15T06:48:11.786Z,8.30
2019-03-15T06:50:41.279Z,8.30
2019-03-15T06:53:10.255Z,8.20
2019-03-15T06:55:39.446Z,8.20
2019-03-15T06:58:08.301Z,8.30
2019-03-15T07:00:37.142Z,8.30
2019-03-15T07:03:06.322Z,8.30
2019-03-15T07:05:35.193Z,8.30
2019-03-15T07:08:04.102Z,8.30
2019-03-15T07:10:33.615Z,8.40
2019-03-15T07:13:02.542Z,8.30
2019-03-15T07:15:31.705Z,8.30
2019-03-15T07:18:00.541Z,8.40
2019-03-15T07:20:29.383Z,8.50
2019-03-15T07:22:58.306Z,8.40
2019-03-15T07:25:27.471Z,8.60
2019-03-15T07:27:56.330Z,8.60
2019-03-15T07:30:25.234Z,8.70
2019-03-15T07:32:54.180Z,8.90
2019-03-15T07:35:23.023Z,8.90
2019-03-15T07:37:52.238Z,8.90
2019-03-15T07:40:21.429Z,9.10
2019-03-15T07:42:50.746Z,9.20
2019-03-15T07:45:19.578Z,9.20
2019-03-15T07:47:48.822Z,9.20
2019-03-15T07:50:17.810Z,9.30
2019-03-15T07:52:46.663Z,9.50
2019-03-15T07:55:15.493Z,9.40
2019-03-15T07:57:44.695Z,9.50
2019-03-15T08:00:14.303Z,9.60
2019-03-15T08:02:43.507Z,9.60
2019-03-15T08:05:13.003Z,9.60
2019-03-15T08:07:45.174Z,9.70
2019-03-15T08:10:12.983Z,9.60
2019-03-15T08:12:41.909Z,9.80
2019-03-15T08:15:11.304Z,9.80
2019-03-15T08:17:40.434Z,9.90
2019-03-15T08:20:09.954Z,9.90
2019-03-15T08:22:39.247Z,9.90
2019-03-15T08:25:09.082Z,9.90
2019-03-15T08:27:38.009Z,9.90
2019-03-15T08:30:09.260Z,9.90
2019-03-15T08:32:38.190Z,10.00
2019-03-15T08:35:08.519Z,10.00
2019-03-15T08:37:37.711Z,10.00
2019-03-15T08:40:07.890Z,10.00
2019-03-15T08:42:37.028Z,10.10
2019-03-15T08:45:08.382Z,10.10
2019-03-15T08:47:37.330Z,10.10
2019-03-15T08:50:06.639Z,10.10
2019-03-15T08:52:35.478Z,10.20
2019-03-15T08:55:05.795Z,10.20
2019-03-15T08:57:35.048Z,10.20
2019-03-15T09:00:04.218Z,10.20
2019-03-15T09:02:33.405Z,10.20
2019-03-15T09:05:02.333Z,10.30
2019-03-15T09:07:31.157Z,10.20
2019-03-15T09:10:03.153Z,10.20
2019-03-15T09:12:31.293Z,10.30
2019-03-15T09:15:00.404Z,10.30
2019-03-15T09:17:29.280Z,10.30
2019-03-15T09:19:58.223Z,10.40
2019-03-15T09:22:27.679Z,10.40
2019-03-15T09:24:56.623Z,10.40
2019-03-15T09:27:26.205Z,10.30
2019-03-15T09:29:55.148Z,10.40
2019-03-15T09:32:24.570Z,10.30
2019-03-15T09:34:55.698Z,10.40
2019-03-15T09:37:24.710Z,10.50
2019-03-15T09:39:53.923Z,10.60
2019-03-15T09:42:22.762Z,10.50
2019-03-15T09:44:51.618Z,10.50
2019-03-15T09:47:20.891Z,10.50
2019-03-15T09:49:49.742Z,10.60
2019-03-15T09:52:18.654Z,10.60
2019-03-15T09:54:47.770Z,10.60
2019-03-15T09:57:16.605Z,10.60
2019-03-15T09:59:45.758Z,10.60
2019-03-15T10:02:14.990Z,10.70
2019-03-15T10:04:44.150Z,10.60
2019-03-15T10:07:13.026Z,10.70
2019-03-15T10:09:46.180Z,10.50
2019-03-15T10:12:13.178Z,10.50
2019-03-15T10:14:42.422Z,10.60
2019-03-15T10:17:11.398Z,10.60
2019-03-15T10:19:41.078Z,10.70
2019-03-15T10:22:10.006Z,10.70
2019-03-15T10:24:39.178Z,10.60
2019-03-15T10:27:08.532Z,10.60
2019-03-15T10:29:37.388Z,10.60
2019-03-15T10:32:06.666Z,10.70
2019-03-15T10:34:36.002Z,10.80
2019-03-15T10:37:06.271Z,10.80
2019-03-15T10:39:35.724Z,10.80
2019-03-15T10:42:05.225Z,10.80
2019-03-15T10:44:34.155Z,10.90
2019-03-15T10:47:02.982Z,10.90
2019-03-15T10:49:31.995Z,10.90
2019-03-15T10:52:01.174Z,10.90
2019-03-15T10:54:30.129Z,10.90
2019-03-15T10:56:59.007Z,10.90
2019-03-15T10:59:27.854Z,10.90
2019-03-15T11:01:57.146Z,10.90
2019-03-15T11:04:26.153Z,11.00
2019-03-15T11:06:55.342Z,11.00
2019-03-15T11:09:24.261Z,11.00
2019-03-15T11:11:53.100Z,11.00
2019-03-15T11:14:22.025Z,11.00
2019-03-15T11:16:50.858Z,11.00
2019-03-15T11:19:19.710Z,11.00
2019-03-15T11:21:48.819Z,11.00
2019-03-15T11:24:17.766Z,11.00
2019-03-15T11:26:46.615Z,11.10
2019-03-15T11:29:15.507Z,11.10
2019-03-15T11:31:44.352Z,11.10
2019-03-15T11:34:13.578Z,11.10
2019-03-15T11:36:42.850Z,11.00
2019-03-15T11:39:12.353Z,11.00
2019-03-15T11:41:41.938Z,11.10
2019-03-15T11:44:10.777Z,11.10
2019-03-15T11:46:40.028Z,11.20
2019-03-15T11:49:09.095Z,11.10
2019-03-15T11:51:38.521Z,11.10
2019-03-15T11:54:07.977Z,11.00
2019-03-15T11:56:36.836Z,11.10
2019-03-15T11:59:05.958Z,11.10
2019-03-15T12:01:37.615Z,11.10
2019-03-15T12:04:05.617Z,11.20
2019-03-15T12:06:34.798Z,11.20
2019-03-15T12:09:22.847Z,11.20
2019-03-15T12:11:51.694Z,11.20
2019-03-15T12:14:20.887Z,11.20
2019-03-15T12:16:50.238Z,11.10
2019-03-15T12:19:19.218Z,11.20
2019-03-15T12:21:48.384Z,11.20
2019-03-15T12:24:17.574Z,11.20
2019-03-15T12:26:46.462Z,11.30
2019-03-15T12:29:21.485Z,11.20
2019-03-15T12:31:50.325Z,11.20
2019-03-15T12:34:19.154Z,11.20
2019-03-15T12:36:48.007Z,11.40
2019-03-15T12:39:17.278Z,11.40
2019-03-15T12:41:46.466Z,11.40
2019-03-15T12:44:15.672Z,11.40
2019-03-15T12:46:44.870Z,11.40
2019-03-15T12:49:13.790Z,11.40
2019-03-15T12:51:42.706Z,11.50
2019-03-15T12:54:11.569Z,11.50
2019-03-15T12:56:53.107Z,11.50
2019-03-15T12:59:11.623Z,11.50
2019-03-15T13:01:40.776Z,11.60
2019-03-15T13:04:09.702Z,11.60
2019-03-15T13:06:38.907Z,11.60
2019-03-15T13:09:07.819Z,11.60
2019-03-15T13:11:36.746Z,11.60
2019-03-15T13:14:05.766Z,11.60
2019-03-15T13:16:35.566Z,11.50
2019-03-15T13:19:04.910Z,11.50
2019-03-15T13:21:33.766Z,11.60
2019-03-15T13:24:02.617Z,11.50
2019-03-15T13:26:31.834Z,11.60
2019-03-15T13:29:01.720Z,11.60
2019-03-15T13:31:30.646Z,11.60
2019-03-15T13:34:00.249Z,11.60
2019-03-15T13:36:29.449Z,11.70
2019-03-15T13:38:58.314Z,11.60
2019-03-15T13:41:27.174Z,11.60
2019-03-15T13:43:56.632Z,11.60
2019-03-15T13:46:25.846Z,11.60
2019-03-15T13:48:55.335Z,11.60
2019-03-15T13:51:24.190Z,11.40
2019-03-15T13:53:53.026Z,11.40
2019-03-15T13:56:21.985Z,11.50
2019-03-15T13:58:57.290Z,11.50
2019-03-15T14:01:21.798Z,11.50
2019-03-15T14:03:50.639Z,11.50
2019-03-15T14:06:20.135Z,11.50
2019-03-15T14:08:49.346Z,11.50
2019-03-15T14:11:18.197Z,11.50
2019-03-15T14:13:47.733Z,11.40
2019-03-15T14:16:16.926Z,11.50
2019-03-15T14:18:46.055Z,11.40
2019-03-15T14:21:15.015Z,11.40
2019-03-15T14:23:44.214Z,11.40
2019-03-15T14:26:13.446Z,11.40
2019-03-15T14:28:42.922Z,11.40
2019-03-15T14:31:11.832Z,11.40
2019-03-15T14:33:40.826Z,11.40
2019-03-15T14:36:10.103Z,11.40
2019-03-15T14:38:39.410Z,11.50
2019-03-15T14:41:08.298Z,11.40
2019-03-15T14:43:37.719Z,11.40
2019-03-15T14:46:07.042Z,11.50
2019-03-15T14:48:36.081Z,11.40
2019-03-15T14:51:05.024Z,11.40
2019-03-15T14:53:34.587Z,11.40
2019-03-15T14:56:03.549Z,11.50
2019-03-15T14:58:32.782Z,11.60
2019-03-15T15:01:01.983Z,11.50
2019-03-15T15:03:30.915Z,11.60
2019-03-15T15:06:00.076Z,11.60
2019-03-15T15:08:29.270Z,11.60
2019-03-15T15:10:58.175Z,11.70
2019-03-15T15:13:27.368Z,11.70
2019-03-15T15:15:56.202Z,11.60
2019-03-15T15:18:25.280Z,11.60
2019-03-15T15:20:54.547Z,11.70
2019-03-15T15:23:23.848Z,11.70
2019-03-15T15:25:52.683Z,11.70
2019-03-15T15:28:21.902Z,11.70
2019-03-15T15:30:50.810Z,11.60
2019-03-15T15:33:20.054Z,11.70
2019-03-15T15:35:49.222Z,11.70
2019-03-15T15:38:18.539Z,11.70
2019-03-15T15:40:47.438Z,11.70
2019-03-15T15:43:17.534Z,11.80
2019-03-15T15:45:46.531Z,11.80
2019-03-15T15:48:15.969Z,11.80
2019-03-15T15:50:45.538Z,11.80
2019-03-15T15:53:14.711Z,11.70
2019-03-15T15:55:43.871Z,11.80
2019-03-15T15:58:17.818Z,11.80
2019-03-15T16:00:43.766Z,11.80
2019-03-15T16:03:13.487Z,11.90
2019-03-15T16:05:42.675Z,11.80
2019-03-15T16:08:12.290Z,11.70
2019-03-15T16:10:41.294Z,11.60
2019-03-15T16:13:17.424Z,11.70
2019-03-15T16:15:41.932Z,11.70
2019-03-15T16:18:10.845Z,11.80
2019-03-15T16:20:39.691Z,11.80
2019-03-15T16:23:08.666Z,11.80
2019-03-15T16:25:38.003Z,11.80
2019-03-15T16:28:07.199Z,11.80
2019-03-15T16:30:36.215Z,11.70
2019-03-15T16:33:05.595Z,11.70
2019-03-15T16:35:34.799Z,11.70
2019-03-15T16:38:03.990Z,11.70
2019-03-15T16:40:33.196Z,11.70
2019-03-15T16:43:02.387Z,11.80
2019-03-15T16:45:31.629Z,11.80
2019-03-15T16:48:00.882Z,11.70
2019-03-15T16:50:30.084Z,11.70
2019-03-15T16:52:59.223Z,11.80
2019-03-15T16:55:28.071Z,11.80
2019-03-15T16:57:57.005Z,11.70
2019-03-15T17:00:26.295Z,11.70
2019-03-15T17:02:55.569Z,11.70
2019-03-15T17:05:24.491Z,11.70
2019-03-15T17:07:53.669Z,11.70
2019-03-15T17:10:22.866Z,11.70
2019-03-15T17:12:55.477Z,11.60
2019-03-15T17:15:22.798Z,11.70
2019-03-15T17:17:51.650Z,11.70
2019-03-15T17:20:20.638Z,11.60
2019-03-15T17:22:49.867Z,11.60
2019-03-15T17:25:18.800Z,11.50
2019-03-15T17:27:47.667Z,11.70
2019-03-15T17:30:16.945Z,11.60
2019-03-15T17:32:45.881Z,11.60
2019-03-15T17:35:15.373Z,11.70
2019-03-15T17:37:44.451Z,11.60
2019-03-15T17:40:13.947Z,11.60
2019-03-15T17:42:43.062Z,11.70
2019-03-15T17:45:12.069Z,11.60
2019-03-15T17:47:41.015Z,11.60
2019-03-15T17:50:16.382Z,11.60
2019-03-15T17:52:45.800Z,11.60
2019-03-15T17:55:15.122Z,11.60
2019-03-15T17:57:45.833Z,11.60
2019-03-15T18:00:24.745Z,11.60
2019-03-15T18:02:54.043Z,11.70
2019-03-15T18:05:22.957Z,11.70
2019-03-15T18:07:51.958Z,11.60
2019-03-15T18:10:20.997Z,11.50
2019-03-15T18:12:50.001Z,11.50
2019-03-15T18:15:19.006Z,11.50
2019-03-15T18:18:07.474Z,11.50
2019-03-15T18:20:36.793Z,11.50
2019-03-15T18:23:05.783Z,11.50
2019-03-15T18:25:34.628Z,11.50
2019-03-15T18:28:03.843Z,11.50
2019-03-15T18:30:33.045Z,11.50
2019-03-15T18:33:02.290Z,11.40
2019-03-15T18:35:33.872Z,11.40
2019-03-15T18:38:02.593Z,11.40
2019-03-15T18:40:31.510Z,11.30
2019-03-15T18:43:00.780Z,11.40
2019-03-15T18:45:30.172Z,11.30
2019-03-15T18:47:59.014Z,11.30
2019-03-15T18:50:27.951Z,11.30
2019-03-15T18:52:56.871Z,11.30
2019-03-15T18:55:26.148Z,11.40
2019-03-15T18:57:54.973Z,11.30
2019-03-15T19:00:24.011Z,11.30
2019-03-15T19:02:52.927Z,11.40
2019-03-15T19:05:21.930Z,11.30
2019-03-15T19:07:51.255Z,11.30
2019-03-15T19:10:20.927Z,11.30
2019-03-15T19:12:50.122Z,11.30
2019-03-15T19:15:19.052Z,11.40
2019-03-15T19:17:48.422Z,11.40
2019-03-15T19:20:17.444Z,11.40
2019-03-15T19:22:46.354Z,11.40
2019-03-15T19:25:15.379Z,11.30
2019-03-15T19:27:44.702Z,11.40
2019-03-15T19:30:13.823Z,11.40
2019-03-15T19:32:42.814Z,11.40
2019-03-15T19:35:11.828Z,11.50
2019-03-15T19:37:41.091Z,11.50
2019-03-15T19:40:11.498Z,11.40
2019-03-15T19:42:40.410Z,11.50
2019-03-15T19:45:11.567Z,11.50
2019-03-15T19:47:40.741Z,11.50
2019-03-15T19:50:12.401Z,11.40
2019-03-15T19:52:41.328Z,11.40
2019-03-15T19:55:11.432Z,11.40
2019-03-15T19:57:40.615Z,11.40
2019-03-15T20:00:14.530Z,11.40
2019-03-15T20:02:43.613Z,11.40
2019-03-15T20:05:12.616Z,11.40
2019-03-15T20:07:41.692Z,11.30
2019-03-15T20:10:11.790Z,11.20
2019-03-15T20:12:41.058Z,11.10
2019-03-15T20:15:10.422Z,11.10
2019-03-15T20:17:39.337Z,11.10
2019-03-15T20:20:09.303Z,11.10
2019-03-15T20:22:38.216Z,11.00
2019-03-15T20:25:09.523Z,11.10
2019-03-15T20:27:38.439Z,11.00
2019-03-15T20:30:20.577Z,11.10
2019-03-15T20:32:40.751Z,11.00
2019-03-15T20:35:10.255Z,10.90
2019-03-15T20:37:39.184Z,11.00
2019-03-15T20:40:08.862Z,11.00
2019-03-15T20:42:37.712Z,11.00
2019-03-15T20:45:08.444Z,11.00
2019-03-15T20:47:37.402Z,11.00
2019-03-15T20:50:06.938Z,11.00
2019-03-15T20:52:35.789Z,11.00
2019-03-15T20:55:04.910Z,11.00
2019-03-15T20:57:33.894Z,11.10
2019-03-15T21:00:02.981Z,11.00
2019-03-15T21:02:32.285Z,11.00
2019-03-15T21:05:01.454Z,11.00
2019-03-15T21:07:30.306Z,11.10
2019-03-15T21:09:59.543Z,11.10
2019-03-15T21:12:28.743Z,11.10
2019-03-15T21:14:57.589Z,11.10
2019-03-15T21:17:26.767Z,11.00
2019-03-15T21:19:56.232Z,11.00
2019-03-15T21:22:25.082Z,11.00
2019-03-15T21:25:13.133Z,11.00
2019-03-15T21:27:52.860Z,11.00
2019-03-15T21:30:14.406Z,11.10
2019-03-15T21:32:43.408Z,11.20
2019-03-15T21:35:12.414Z,11.10
2019-03-15T21:37:41.344Z,11.10
2019-03-15T21:40:11.437Z,11.20
2019-03-15T21:42:40.420Z,11.10
2019-03-15T21:45:10.333Z,11.10
2019-03-15T21:47:39.326Z,11.10
2019-03-15T21:50:10.233Z,11.10
2019-03-15T21:52:39.082Z,11.10
2019-03-15T21:55:08.149Z,11.10
2019-03-15T21:57:37.451Z,11.20
2019-03-15T22:00:07.433Z,11.10
2019-03-15T22:02:36.376Z,11.10
2019-03-15T22:05:05.722Z,11.20
2019-03-15T22:07:34.863Z,11.20
2019-03-15T22:10:04.195Z,11.20
2019-03-15T22:12:33.363Z,11.20
2019-03-15T22:15:02.985Z,11.20
2019-03-15T22:17:31.907Z,11.10
2019-03-15T22:20:01.160Z,11.20
2019-03-15T22:22:30.369Z,11.20
2019-03-15T22:24:59.558Z,11.10
2019-03-15T22:27:28.679Z,11.10
2019-03-15T22:29:57.529Z,11.20
2019-03-15T22:32:26.377Z,11.20
2019-03-15T22:34:55.937Z,11.10
2019-03-15T22:37:24.784Z,11.10
2019-03-15T22:39:53.614Z,11.10
2019-03-15T22:42:22.470Z,11.00
2019-03-15T22:44:51.457Z,11.10
2019-03-15T22:47:20.305Z,11.10
2019-03-15T22:49:49.517Z,11.10
2019-03-15T22:52:18.361Z,11.10
2019-03-15T22:54:47.482Z,11.10
2019-03-15T22:57:17.160Z,11.00
2019-03-15T22:59:46.286Z,11.00
2019-03-15T23:02:15.154Z,11.00
2019-03-15T23:04:44.387Z,11.00
2019-03-15T23:07:13.295Z,11.00
2019-03-15T23:09:42.565Z,11.00
2019-03-15T23:12:11.659Z,11.00
2019-03-15T23:14:40.515Z,11.00
2019-03-15T23:17:10.231Z,10.90
2019-03-15T23:19:39.154Z,10.90
2019-03-15T23:22:08.355Z,11.00
2019-03-15T23:24:37.200Z,11.00
2019-03-15T23:27:06.026Z,10.90
2019-03-15T23:29:35.038Z,10.90
2019-03-15T23:32:04.231Z,10.80
2019-03-15T23:34:33.070Z,10.80
2019-03-15T23:37:01.902Z,10.90
2019-03-15T23:39:30.847Z,10.90
2019-03-15T23:41:59.681Z,10.90
2019-03-15T23:44:28.641Z,10.80
2019-03-15T23:46:57.529Z,10.90
2019-03-15T23:49:27.225Z,10.80
2019-03-15T23:51:56.378Z,10.70
2019-03-15T23:54:25.570Z,10.70
2019-03-15T23:56:54.401Z,10.80
2019-03-15T23:59:23.334Z,10.80
